createdAt,value
2018-12-26T00:02:23.662Z,15.28
2018-12-26T00:04:51.799Z,12.78
2018-12-26T00:07:20.044Z,10.48
2018-12-26T00:09:48.166Z,13.72
2018-12-26T00:12:16.378Z,7.87
2018-12-26T00:14:44.445Z,9.63
2018-12-26T00:17:12.582Z,10.95
2018-12-26T00:19:40.711Z,17.12
2018-12-26T00:22:09.031Z,11.95
2018-12-26T00:24:37.146Z,8.05
2018-12-26T00:27:05.398Z,11.90
2018-12-26T00:29:33.504Z,10.75
2018-12-26T00:32:01.615Z,11.60
2018-12-26T00:34:29.667Z,12.70
2018-12-26T00:36:57.789Z,14.45
2018-12-26T00:39:26.067Z,14.18
2018-12-26T00:41:54.170Z,15.00
2018-12-26T00:44:22.332Z,11.38
2018-12-26T00:46:50.480Z,10.38
2018-12-26T00:49:18.595Z,10.98
2018-12-26T00:51:46.747Z,13.53
2018-12-26T00:54:16.515Z,9.45
2018-12-26T00:56:44.829Z,16.37
2018-12-26T00:59:12.975Z,11.10
2018-12-26T01:01:41.086Z,14.38
2018-12-26T01:04:09.227Z,11.93
2018-12-26T01:06:37.361Z,16.73
2018-12-26T01:09:07.075Z,13.55
2018-12-26T01:11:35.183Z,10.58
2018-12-26T01:14:03.468Z,16.87
2018-12-26T01:16:31.579Z,8.48
2018-12-26T01:18:59.707Z,18.70
2018-12-26T01:21:27.851Z,18.10
2018-12-26T01:23:55.995Z,14.38
2018-12-26T01:26:24.259Z,15.18
2018-12-26T01:28:52.378Z,10.50
2018-12-26T01:31:20.503Z,12.68
2018-12-26T01:33:48.639Z,12.73
2018-12-26T01:36:16.769Z,12.43
2018-12-26T01:38:44.902Z,8.95
2018-12-26T01:41:13.015Z,13.28
2018-12-26T01:43:41.135Z,10.00
2018-12-26T01:46:09.799Z,10.48
2018-12-26T01:48:37.911Z,12.45
2018-12-26T01:51:06.042Z,9.20
2018-12-26T01:53:34.078Z,9.37
2018-12-26T01:56:02.242Z,10.93
2018-12-26T01:58:30.374Z,14.45
2018-12-26T02:00:58.501Z,9.25
2018-12-26T02:03:26.563Z,10.67
2018-12-26T02:05:54.603Z,15.63
2018-12-26T02:08:22.658Z,11.67
2018-12-26T02:10:50.777Z,12.00
2018-12-26T02:13:18.894Z,13.83
2018-12-26T02:15:47.037Z,11.50
2018-12-26T02:18:15.331Z,18.25
2018-12-26T02:20:43.506Z,21.33
2018-12-26T02:23:11.618Z,12.30
2018-12-26T02:25:41.464Z,14.45
2018-12-26T02:28:09.550Z,13.60
2018-12-26T02:30:37.827Z,15.23
2018-12-26T02:33:06.029Z,12.80
2018-12-26T02:35:34.104Z,16.20
2018-12-26T02:38:02.234Z,9.80
2018-12-26T02:40:30.351Z,11.73
2018-12-26T02:42:58.400Z,10.47
2018-12-26T02:45:26.761Z,16.30
2018-12-26T02:47:54.937Z,18.03
2018-12-26T02:50:23.088Z,12.35
2018-12-26T02:52:51.202Z,10.80
2018-12-26T02:55:19.344Z,8.40
2018-12-26T02:57:47.451Z,11.83
2018-12-26T03:00:15.624Z,12.90
2018-12-26T03:02:43.744Z,12.35
2018-12-26T03:05:11.861Z,12.15
2018-12-26T03:07:40.003Z,15.65
2018-12-26T03:10:08.139Z,21.42
2018-12-26T03:12:36.292Z,13.58
2018-12-26T03:15:04.487Z,19.37
2018-12-26T03:17:34.418Z,14.00
2018-12-26T03:20:02.559Z,11.35
2018-12-26T03:22:30.698Z,12.58
2018-12-26T03:24:58.853Z,24.60
2018-12-26T03:27:26.960Z,15.32
2018-12-26T03:29:55.086Z,14.25
2018-12-26T03:32:23.237Z,14.68
2018-12-26T03:34:51.339Z,13.00
2018-12-26T03:37:19.544Z,12.07
2018-12-26T03:39:47.647Z,10.82
2018-12-26T03:42:15.759Z,11.68
2018-12-26T03:44:44.191Z,13.18
2018-12-26T03:47:12.262Z,11.90
2018-12-26T03:49:40.538Z,13.08
2018-12-26T03:52:08.757Z,12.45
2018-12-26T03:54:36.880Z,11.63
2018-12-26T03:57:06.240Z,12.70
2018-12-26T03:59:34.866Z,11.38
2018-12-26T04:02:03.117Z,11.33
2018-12-26T04:04:31.229Z,11.63
2018-12-26T04:06:59.349Z,14.68
2018-12-26T04:09:27.496Z,10.70
2018-12-26T04:11:55.803Z,14.33
2018-12-26T04:14:24.319Z,10.67
2018-12-26T04:16:52.347Z,16.60
2018-12-26T04:19:20.803Z,10.93
2018-12-26T04:21:49.036Z,10.60
2018-12-26T04:24:17.435Z,13.50
2018-12-26T04:26:45.588Z,11.38
2018-12-26T04:29:13.717Z,14.55
2018-12-26T04:31:41.840Z,13.43
2018-12-26T04:34:09.993Z,13.32
2018-12-26T04:36:38.129Z,12.30
2018-12-26T04:39:06.698Z,11.63
2018-12-26T04:41:34.847Z,13.08
2018-12-26T04:44:02.978Z,13.85
2018-12-26T04:46:31.156Z,10.70
2018-12-26T04:48:59.535Z,11.63
2018-12-26T04:51:27.632Z,13.78
2018-12-26T04:53:55.739Z,11.48
2018-12-26T04:56:23.880Z,15.32
2018-12-26T04:58:51.991Z,10.72
2018-12-26T05:01:20.343Z,13.43
2018-12-26T05:03:48.455Z,13.83
2018-12-26T05:06:16.563Z,16.15
2018-12-26T05:08:44.707Z,19.07
2018-12-26T05:11:12.815Z,16.40
2018-12-26T05:13:40.959Z,14.33
2018-12-26T05:16:09.080Z,14.60
2018-12-26T05:18:37.231Z,14.98
2018-12-26T05:21:05.339Z,13.83
2018-12-26T05:23:33.454Z,11.57
2018-12-26T05:26:01.596Z,20.75
2018-12-26T05:28:29.708Z,15.13
2018-12-26T05:30:57.908Z,24.80
2018-12-26T05:33:26.022Z,11.22
2018-12-26T05:35:54.138Z,12.73
2018-12-26T05:38:22.273Z,14.73
2018-12-26T05:40:50.377Z,12.60
2018-12-26T05:43:18.518Z,13.13
2018-12-26T05:45:46.624Z,15.08
2018-12-26T05:48:14.959Z,12.07
2018-12-26T05:50:43.086Z,14.18
2018-12-26T05:53:11.208Z,16.42
2018-12-26T05:55:39.350Z,13.20
2018-12-26T05:58:07.571Z,20.62
2018-12-26T06:00:35.728Z,13.22
2018-12-26T06:03:03.844Z,13.00
2018-12-26T06:05:31.973Z,13.05
2018-12-26T06:08:00.114Z,10.78
2018-12-26T06:10:28.229Z,11.43
2018-12-26T06:12:56.384Z,11.83
2018-12-26T06:15:24.512Z,12.75
2018-12-26T06:17:52.707Z,12.13
2018-12-26T06:20:20.939Z,14.30
2018-12-26T06:22:49.055Z,12.98
2018-12-26T06:25:17.234Z,12.85
2018-12-26T06:27:51.425Z,16.02
2018-12-26T06:30:15.158Z,14.75
2018-12-26T06:32:43.268Z,12.78
2018-12-26T06:35:11.434Z,18.27
2018-12-26T06:37:39.557Z,12.10
2018-12-26T06:40:07.667Z,13.05
2018-12-26T06:42:35.987Z,13.65
2018-12-26T06:45:04.111Z,11.70
2018-12-26T06:47:32.356Z,15.05
2018-12-26T06:50:00.571Z,10.32
2018-12-26T06:52:28.716Z,12.82
2018-12-26T06:54:56.838Z,13.20
2018-12-26T06:57:25.275Z,11.05
2018-12-26T06:59:53.387Z,12.37
2018-12-26T07:02:21.510Z,13.18
2018-12-26T07:04:49.639Z,15.32
2018-12-26T07:07:17.755Z,15.53
2018-12-26T07:09:45.983Z,13.08
2018-12-26T07:12:14.091Z,12.00
2018-12-26T07:14:42.243Z,13.70
2018-12-26T07:17:10.355Z,10.28
2018-12-26T07:19:38.461Z,11.38
2018-12-26T07:22:06.594Z,11.93
2018-12-26T07:24:34.701Z,10.15
2018-12-26T07:27:02.852Z,19.67
2018-12-26T07:29:30.960Z,12.75
2018-12-26T07:31:59.096Z,13.45
2018-12-26T07:34:27.214Z,11.85
2018-12-26T07:36:55.546Z,13.55
2018-12-26T07:39:23.671Z,12.30
2018-12-26T07:41:51.772Z,11.55
2018-12-26T07:44:19.946Z,12.68
2018-12-26T07:46:48.065Z,14.68
2018-12-26T07:49:16.195Z,16.23
2018-12-26T07:51:44.311Z,12.82
2018-12-26T07:54:12.663Z,12.47
2018-12-26T07:56:40.796Z,14.18
2018-12-26T07:59:08.913Z,13.30
2018-12-26T08:01:37.056Z,11.85
2018-12-26T08:04:05.179Z,14.60
2018-12-26T08:06:33.303Z,12.00
2018-12-26T08:09:01.408Z,12.15
2018-12-26T08:11:29.675Z,11.90
2018-12-26T08:13:57.855Z,13.62
2018-12-26T08:16:25.967Z,12.13
2018-12-26T08:18:54.105Z,10.65
2018-12-26T08:21:22.218Z,12.07
2018-12-26T08:23:50.450Z,13.25
2018-12-26T08:26:18.565Z,15.32
2018-12-26T08:28:46.999Z,13.15
2018-12-26T08:31:15.113Z,14.68
2018-12-26T08:33:43.219Z,15.08
2018-12-26T08:36:11.370Z,11.38
2018-12-26T08:38:39.477Z,10.70
2018-12-26T08:41:07.616Z,13.20
2018-12-26T08:43:35.720Z,11.85
2018-12-26T08:46:03.933Z,15.05
2018-12-26T08:48:32.038Z,15.63
2018-12-26T08:51:00.169Z,16.95
2018-12-26T08:53:28.343Z,11.80
2018-12-26T08:55:56.458Z,15.15
2018-12-26T08:58:24.617Z,13.80
2018-12-26T09:00:52.744Z,11.83
2018-12-26T09:03:21.031Z,13.05
2018-12-26T09:05:49.155Z,15.72
2018-12-26T09:08:17.337Z,17.02
2018-12-26T09:10:45.481Z,17.00
2018-12-26T09:13:13.602Z,13.83
2018-12-26T09:15:41.763Z,11.65
2018-12-26T09:18:09.887Z,15.03
2018-12-26T09:20:38.060Z,14.25
2018-12-26T09:23:06.170Z,13.65
2018-12-26T09:25:34.288Z,15.20
2018-12-26T09:28:02.432Z,15.08
2018-12-26T09:30:30.575Z,14.25
2018-12-26T09:32:58.692Z,12.68
2018-12-26T09:35:26.912Z,14.68
2018-12-26T09:37:55.096Z,12.75
2018-12-26T09:40:23.211Z,14.65
2018-12-26T09:42:51.375Z,12.98
2018-12-26T09:45:19.531Z,16.73
2018-12-26T09:47:47.714Z,14.70
2018-12-26T09:50:15.887Z,13.05
2018-12-26T09:52:43.998Z,13.93
2018-12-26T09:55:12.115Z,13.13
2018-12-26T09:57:40.258Z,12.98
2018-12-26T10:00:08.973Z,14.93
2018-12-26T10:02:37.429Z,17.40
2018-12-26T10:05:05.951Z,16.05
2018-12-26T10:07:34.067Z,15.80
2018-12-26T10:10:02.199Z,18.62
2018-12-26T10:12:30.333Z,16.12
2018-12-26T10:14:58.723Z,12.55
2018-12-26T10:17:26.854Z,14.40
2018-12-26T10:19:54.968Z,15.85
2018-12-26T10:22:23.103Z,17.17
2018-12-26T10:24:51.219Z,17.70
2018-12-26T10:27:19.347Z,13.00
2018-12-26T10:29:47.471Z,13.20
2018-12-26T10:32:15.725Z,19.02
2018-12-26T10:34:43.839Z,14.70
2018-12-26T10:37:12.229Z,14.73
2018-12-26T10:39:40.316Z,14.03
2018-12-26T10:42:08.431Z,11.25
2018-12-26T10:44:36.563Z,13.68
2018-12-26T10:47:05.006Z,11.33
2018-12-26T10:49:33.259Z,10.38
2018-12-26T10:52:01.375Z,12.03
2018-12-26T10:54:29.484Z,9.15
2018-12-26T10:56:57.624Z,15.15
2018-12-26T10:59:25.996Z,11.63
2018-12-26T11:01:54.115Z,10.18
2018-12-26T11:04:22.170Z,11.53
2018-12-26T11:06:50.334Z,11.90
2018-12-26T11:09:18.441Z,10.20
2018-12-26T11:11:46.683Z,14.60
2018-12-26T11:14:14.912Z,11.20
2018-12-26T11:16:42.927Z,14.20
2018-12-26T11:19:11.349Z,12.67
2018-12-26T11:21:39.393Z,14.53
2018-12-26T11:24:07.420Z,11.53
2018-12-26T11:26:35.485Z,15.67
2018-12-26T11:29:03.604Z,11.10
2018-12-26T11:31:31.812Z,9.60
2018-12-26T11:33:59.943Z,8.83
2018-12-26T11:36:27.972Z,11.80
2018-12-26T11:38:56.028Z,7.20
2018-12-26T11:41:24.056Z,10.90
2018-12-26T11:43:52.275Z,8.60
2018-12-26T11:46:20.595Z,12.00
2018-12-26T11:48:48.723Z,11.85
2018-12-26T11:51:16.784Z,15.67
2018-12-26T11:53:44.813Z,15.40
2018-12-26T11:56:13.052Z,10.73
2018-12-26T11:58:41.075Z,16.07
2018-12-26T12:01:09.116Z,10.07
2018-12-26T12:03:37.179Z,16.33
2018-12-26T12:06:05.209Z,8.83
2018-12-26T12:08:33.327Z,10.07
2018-12-26T12:11:01.356Z,10.50
2018-12-26T12:13:29.387Z,10.93
2018-12-26T12:15:57.457Z,10.07
2018-12-26T12:18:25.478Z,8.03
2018-12-26T12:20:53.663Z,13.17
2018-12-26T12:23:21.736Z,18.50
2018-12-26T12:25:49.786Z,9.40
2018-12-26T12:28:17.832Z,10.20
2018-12-26T12:30:45.843Z,7.57
2018-12-26T12:33:13.892Z,9.03
2018-12-26T12:35:41.922Z,10.87
2018-12-26T12:38:09.988Z,11.17
2018-12-26T12:40:38.010Z,10.30
2018-12-26T12:43:06.038Z,12.70
2018-12-26T12:45:34.186Z,11.13
2018-12-26T12:48:02.259Z,11.90
2018-12-26T12:50:30.309Z,4.50
2018-12-26T12:52:58.329Z,5.40
2018-12-26T12:55:26.676Z,9.40
2018-12-26T12:57:54.738Z,9.40
2018-12-26T13:00:22.762Z,8.43
2018-12-26T13:02:51.016Z,8.90
2018-12-26T13:05:19.063Z,15.87
2018-12-26T13:07:47.108Z,8.37
2018-12-26T13:10:15.134Z,8.87
2018-12-26T13:12:43.183Z,10.53
2018-12-26T13:15:11.327Z,9.80
2018-12-26T13:17:39.362Z,13.00
2018-12-26T13:20:08.150Z,8.17
2018-12-26T13:22:36.192Z,14.33
2018-12-26T13:25:04.264Z,14.60
2018-12-26T13:27:32.290Z,7.63
2018-12-26T13:30:00.327Z,11.20
2018-12-26T13:32:28.395Z,14.10
2018-12-26T13:34:56.408Z,17.60
2018-12-26T13:37:24.621Z,11.47
2018-12-26T13:39:52.634Z,9.30
2018-12-26T13:42:20.660Z,12.20
2018-12-26T13:44:48.723Z,12.20
2018-12-26T13:47:16.743Z,15.77
2018-12-26T13:49:44.828Z,13.00
2018-12-26T13:52:12.844Z,7.80
2018-12-26T13:54:40.878Z,12.10
2018-12-26T13:57:08.924Z,13.40
2018-12-26T13:59:37.020Z,9.00
2018-12-26T14:02:05.104Z,8.70
2018-12-26T14:04:33.238Z,15.23
2018-12-26T14:07:01.275Z,9.63
2018-12-26T14:09:29.333Z,12.40
2018-12-26T14:11:57.352Z,17.07
2018-12-26T14:14:25.408Z,10.47
2018-12-26T14:16:53.455Z,11.67
2018-12-26T14:19:21.554Z,9.43
2018-12-26T14:21:49.577Z,8.30
2018-12-26T14:24:17.599Z,5.70
2018-12-26T14:26:45.663Z,8.10
2018-12-26T14:29:13.675Z,9.87
2018-12-26T14:31:41.718Z,8.93
2018-12-26T14:34:09.755Z,12.23
2018-12-26T14:36:37.831Z,7.40
2018-12-26T14:39:07.043Z,8.00
2018-12-26T14:41:35.066Z,10.17
2018-12-26T14:44:03.121Z,8.30
2018-12-26T14:46:31.143Z,7.87
2018-12-26T14:48:59.266Z,7.47
2018-12-26T14:51:27.280Z,8.67
2018-12-26T14:53:55.463Z,11.33
2018-12-26T14:56:23.528Z,8.40
2018-12-26T14:58:51.559Z,7.30
2018-12-26T15:01:19.607Z,6.30
2018-12-26T15:03:47.640Z,14.63
2018-12-26T15:06:15.706Z,8.27
2018-12-26T15:08:43.732Z,13.57
2018-12-26T15:11:11.965Z,8.33
2018-12-26T15:13:40.016Z,14.53
2018-12-26T15:16:08.084Z,8.37
2018-12-26T15:18:36.147Z,8.23
2018-12-26T15:21:04.159Z,10.63
2018-12-26T15:23:32.226Z,8.50
2018-12-26T15:26:00.249Z,11.70
2018-12-26T15:28:28.674Z,11.70
2018-12-26T15:30:56.707Z,11.30
2018-12-26T15:33:24.732Z,9.67
2018-12-26T15:35:52.782Z,14.20
2018-12-26T15:38:20.811Z,11.80
2018-12-26T15:40:48.875Z,14.50
2018-12-26T15:43:16.903Z,16.13
2018-12-26T15:45:45.079Z,17.10
2018-12-26T15:48:13.120Z,14.20
2018-12-26T15:50:41.357Z,16.80
2018-12-26T15:53:09.414Z,20.37
2018-12-26T15:55:37.449Z,15.80
2018-12-26T15:58:05.588Z,24.92
2018-12-26T16:00:37.549Z,18.40
2018-12-26T16:03:03.431Z,16.53
2018-12-26T16:05:31.515Z,13.70
2018-12-26T16:07:59.544Z,15.90
2018-12-26T16:10:27.607Z,16.10
2018-12-26T16:12:55.633Z,21.43
2018-12-26T16:15:23.686Z,13.73
2018-12-26T16:17:51.726Z,17.40
2018-12-26T16:20:19.930Z,17.80
2018-12-26T16:22:47.963Z,18.93
2018-12-26T16:25:15.985Z,18.43
2018-12-26T16:27:44.040Z,15.03
2018-12-26T16:30:12.061Z,14.93
2018-12-26T16:32:40.108Z,17.27
2018-12-26T16:35:08.695Z,16.73
2018-12-26T16:37:36.852Z,17.90
2018-12-26T16:40:05.151Z,20.93
2018-12-26T16:42:33.186Z,16.70
2018-12-26T16:45:01.254Z,15.10
2018-12-26T16:47:29.284Z,20.63
2018-12-26T16:49:57.453Z,20.50
2018-12-26T16:52:25.491Z,17.27
2018-12-26T16:54:53.555Z,17.50
2018-12-26T16:57:21.591Z,17.60
2018-12-26T16:59:49.819Z,14.68
2018-12-26T17:02:17.861Z,19.37
2018-12-26T17:04:45.893Z,18.60
2018-12-26T17:07:13.964Z,14.87
2018-12-26T17:09:42.004Z,21.13
2018-12-26T17:12:10.274Z,17.73
2018-12-26T17:14:38.303Z,17.30
2018-12-26T17:17:06.423Z,21.17
2018-12-26T17:19:34.560Z,18.98
2018-12-26T17:22:02.590Z,19.30
2018-12-26T17:24:30.731Z,17.80
2018-12-26T17:26:58.860Z,21.55
2018-12-26T17:29:26.879Z,15.67
2018-12-26T17:31:54.959Z,18.27
2018-12-26T17:34:23.074Z,19.32
2018-12-26T17:36:51.400Z,20.10
2018-12-26T17:39:19.425Z,15.50
2018-12-26T17:41:47.507Z,17.07
2018-12-26T17:44:15.581Z,19.60
2018-12-26T17:46:43.683Z,21.87
2018-12-26T17:49:11.847Z,21.95
2018-12-26T17:51:39.910Z,18.50
2018-12-26T17:54:10.717Z,21.33
2018-12-26T17:56:44.093Z,19.48
2018-12-26T17:59:31.492Z,19.80
2018-12-26T18:02:08.399Z,20.60
2018-12-26T18:04:36.593Z,16.90
2018-12-26T18:07:04.720Z,20.50
2018-12-26T18:09:32.844Z,19.30
2018-12-26T18:12:11.791Z,19.00
2018-12-26T18:14:30.595Z,20.47
2018-12-26T18:16:58.740Z,19.17
2018-12-26T18:19:26.775Z,21.67
2018-12-26T18:21:54.970Z,20.50
2018-12-26T18:24:23.182Z,23.77
2018-12-26T18:26:51.303Z,18.80
2018-12-26T18:29:19.438Z,23.07
2018-12-26T18:31:47.559Z,19.35
2018-12-26T18:34:15.700Z,22.58
2018-12-26T18:36:43.812Z,24.07
2018-12-26T18:39:11.883Z,24.20
2018-12-26T18:41:39.999Z,21.60
2018-12-26T18:44:08.126Z,24.30
2018-12-26T18:46:36.176Z,23.43
2018-12-26T18:49:04.203Z,18.60
2018-12-26T18:51:32.263Z,18.63
2018-12-26T18:54:00.324Z,23.10
2018-12-26T18:56:28.524Z,20.70
2018-12-26T18:58:56.633Z,17.30
2018-12-26T19:01:30.637Z,22.37
2018-12-26T19:03:54.462Z,20.80
2018-12-26T19:06:22.596Z,24.52
2018-12-26T19:08:50.734Z,24.02
2018-12-26T19:11:18.947Z,27.32
2018-12-26T19:13:47.343Z,24.40
2018-12-26T19:16:15.488Z,28.35
2018-12-26T19:18:43.631Z,29.87
2018-12-26T19:21:11.769Z,23.90
2018-12-26T19:23:39.891Z,33.05
2018-12-26T19:26:08.059Z,29.02
2018-12-26T19:28:36.167Z,24.47
2018-12-26T19:31:04.244Z,23.47
2018-12-26T19:33:32.352Z,28.77
2018-12-26T19:36:00.480Z,29.55
2018-12-26T19:38:28.610Z,25.65
2018-12-26T19:40:56.738Z,26.97
2018-12-26T19:43:24.867Z,23.15
2018-12-26T19:45:52.984Z,21.77
2018-12-26T19:48:21.304Z,33.60
2018-12-26T19:50:49.446Z,26.07
2018-12-26T19:53:17.618Z,27.67
2018-12-26T19:55:45.760Z,30.62
2018-12-26T19:58:13.867Z,21.60
2018-12-26T20:00:41.998Z,25.52
2018-12-26T20:03:10.118Z,30.82
2018-12-26T20:05:38.725Z,24.00
2018-12-26T20:08:06.795Z,21.00
2018-12-26T20:10:35.128Z,25.57
2018-12-26T20:13:03.184Z,19.80
2018-12-26T20:15:31.295Z,23.67
2018-12-26T20:17:59.452Z,23.95
2018-12-26T20:20:27.566Z,22.00
2018-12-26T20:22:55.739Z,23.38
2018-12-26T20:25:23.772Z,22.27
2018-12-26T20:27:51.839Z,19.90
2018-12-26T20:30:20.112Z,32.53
2018-12-26T20:32:48.187Z,33.03
2018-12-26T20:35:16.309Z,28.87
2018-12-26T20:37:44.333Z,27.73
2018-12-26T20:40:12.368Z,28.33
2018-12-26T20:42:40.423Z,35.90
2018-12-26T20:45:09.130Z,19.87
2018-12-26T20:47:37.599Z,27.62
2018-12-26T20:50:06.416Z,21.33
2018-12-26T20:52:34.559Z,21.00
2018-12-26T20:55:02.613Z,24.73
2018-12-26T20:57:30.726Z,23.22
2018-12-26T20:59:59.189Z,23.20
2018-12-26T21:02:27.223Z,23.67
2018-12-26T21:04:55.259Z,22.70
2018-12-26T21:07:23.401Z,20.08
2018-12-26T21:09:51.431Z,21.80
2018-12-26T21:12:19.571Z,28.47
2018-12-26T21:14:47.603Z,25.63
2018-12-26T21:17:15.663Z,24.23
2018-12-26T21:19:43.687Z,23.67
2018-12-26T21:22:11.720Z,23.37
2018-12-26T21:24:39.779Z,23.30
2018-12-26T21:27:07.811Z,33.60
2018-12-26T21:29:35.975Z,18.85
2018-12-26T21:32:04.018Z,25.70
2018-12-26T21:34:32.099Z,26.60
2018-12-26T21:37:00.130Z,21.70
2018-12-26T21:39:28.172Z,22.30
2018-12-26T21:41:56.223Z,25.27
2018-12-26T21:44:24.330Z,21.07
2018-12-26T21:46:52.391Z,21.20
2018-12-26T21:49:20.419Z,25.93
2018-12-26T21:51:48.805Z,20.77
2018-12-26T21:54:16.863Z,25.97
2018-12-26T21:56:44.891Z,23.00
2018-12-26T21:59:13.036Z,20.82
2018-12-26T22:01:41.072Z,28.97
2018-12-26T22:04:09.194Z,29.48
2018-12-26T22:06:37.339Z,22.35
2018-12-26T22:09:06.676Z,25.13
2018-12-26T22:11:34.822Z,24.35
2018-12-26T22:14:02.947Z,24.50
2018-12-26T22:16:31.060Z,28.02
2018-12-26T22:18:59.206Z,28.00
2018-12-26T22:21:27.319Z,29.07
2018-12-26T22:23:55.473Z,23.25
2018-12-26T22:26:23.587Z,27.35
2018-12-26T22:28:51.703Z,26.68
2018-12-26T22:31:19.851Z,28.50
2018-12-26T22:33:47.963Z,24.05
2018-12-26T22:36:16.105Z,30.40
2018-12-26T22:38:44.223Z,23.83
2018-12-26T22:41:12.504Z,29.67
2018-12-26T22:43:40.636Z,25.75
2018-12-26T22:46:08.773Z,43.68
2018-12-26T22:48:36.850Z,30.03
2018-12-26T22:51:04.971Z,22.75
2018-12-26T22:53:33.347Z,35.65
2018-12-26T22:56:01.457Z,22.95
2018-12-26T22:58:29.724Z,30.23
2018-12-26T23:00:58.151Z,24.50
2018-12-26T23:03:26.275Z,26.35
2018-12-26T23:05:54.403Z,24.73
2018-12-26T23:08:22.468Z,22.20
2018-12-26T23:10:50.568Z,22.30
2018-12-26T23:13:18.663Z,27.10
2018-12-26T23:15:46.939Z,24.33
2018-12-26T23:18:15.059Z,28.47
2018-12-26T23:20:43.180Z,27.10
2018-12-26T23:23:11.336Z,23.20
2018-12-26T23:25:39.368Z,23.10
2018-12-26T23:28:07.511Z,25.92
2018-12-26T23:30:35.639Z,24.05
2018-12-26T23:33:03.963Z,23.38
2018-12-26T23:35:32.005Z,22.13
2018-12-26T23:38:00.111Z,20.85
2018-12-26T23:40:28.267Z,20.20
2018-12-26T23:42:56.411Z,21.85
2018-12-26T23:45:24.484Z,20.27
2018-12-26T23:47:54.272Z,18.60
2018-12-26T23:50:22.422Z,22.80
2018-12-26T23:52:50.539Z,26.10
2018-12-26T23:55:18.738Z,18.80
2018-12-26T23:57:46.885Z,22.67
